createdAt,value
2022-08-18T00:01:17.186Z,21.52
2022-08-18T00:03:57.393Z,21.51
2022-08-18T00:06:30.641Z,21.46
2022-08-18T00:09:00.416Z,21.45
2022-08-18T00:11:41.133Z,21.41
2022-08-18T00:14:21.716Z,21.37
2022-08-18T00:16:53.634Z,21.35
2022-08-18T00:19:43.466Z,21.34
2022-08-18T00:22:14.636Z,21.29
2022-08-18T00:24:47.853Z,21.32
2022-08-18T00:27:28.230Z,21.30
2022-08-18T00:30:03.427Z,21.28
2022-08-18T00:32:36.670Z,21.26
2022-08-18T00:35:10.213Z,21.23
2022-08-18T00:37:38.630Z,21.25
2022-08-18T00:40:08.394Z,21.21
2022-08-18T00:42:44.887Z,21.20
2022-08-18T00:45:18.100Z,21.21
2022-08-18T00:47:46.071Z,21.18
2022-08-18T00:50:23.171Z,21.17
2022-08-18T00:53:00.306Z,21.16
2022-08-18T00:55:30.372Z,21.12
2022-08-18T00:58:04.230Z,21.09
2022-08-18T01:00:33.966Z,21.02
2022-08-18T01:03:08.023Z,21.02
2022-08-18T01:05:40.965Z,20.99
2022-08-18T01:08:11.995Z,20.99
2022-08-18T01:10:40.575Z,21.00
2022-08-18T01:13:09.424Z,20.91
2022-08-18T01:15:39.415Z,20.82
2022-08-18T01:18:30.099Z,20.96
2022-08-18T01:21:21.717Z,20.93
2022-08-18T01:23:53.804Z,20.91
2022-08-18T01:26:25.964Z,20.91
2022-08-18T01:28:54.337Z,20.90
2022-08-18T01:31:38.013Z,20.87
2022-08-18T01:34:07.148Z,20.83
2022-08-18T01:36:37.401Z,20.83
2022-08-18T01:39:08.615Z,20.82
2022-08-18T01:41:36.627Z,20.81
2022-08-18T01:44:05.255Z,20.82
2022-08-18T01:46:35.944Z,20.81
2022-08-18T01:49:04.495Z,20.76
2022-08-18T01:51:42.722Z,20.77
2022-08-18T01:54:15.506Z,20.72
2022-08-18T01:56:48.383Z,20.75
2022-08-18T01:59:17.157Z,20.70
2022-08-18T02:01:50.650Z,20.70
2022-08-18T02:04:35.531Z,20.54
2022-08-18T02:07:08.501Z,20.71
2022-08-18T02:09:45.160Z,20.73
2022-08-18T02:12:14.081Z,20.68
2022-08-18T02:14:42.552Z,20.67
2022-08-18T02:17:12.769Z,20.65
2022-08-18T02:19:48.956Z,20.67
2022-08-18T02:22:23.149Z,20.64
2022-08-18T02:24:57.718Z,20.64
2022-08-18T02:27:25.641Z,20.61
2022-08-18T02:29:53.539Z,20.60
2022-08-18T02:32:24.588Z,20.56
2022-08-18T02:34:59.001Z,20.53
2022-08-18T02:37:26.974Z,20.51
2022-08-18T02:39:56.287Z,20.50
2022-08-18T02:42:24.787Z,20.48
2022-08-18T02:44:58.922Z,20.48
2022-08-18T02:47:31.527Z,20.46
2022-08-18T02:50:01.429Z,20.43
2022-08-18T02:52:32.711Z,20.40
2022-08-18T02:55:02.925Z,20.40
2022-08-18T02:57:32.003Z,20.37
2022-08-18T03:00:01.364Z,20.32
2022-08-18T03:02:29.606Z,20.30
2022-08-18T03:04:59.536Z,20.26
2022-08-18T03:07:27.568Z,20.25
2022-08-18T03:09:55.566Z,20.25
2022-08-18T03:12:24.979Z,20.26
2022-08-18T03:14:55.863Z,20.23
2022-08-18T03:17:31.871Z,20.20
2022-08-18T03:19:59.792Z,20.18
2022-08-18T03:22:32.098Z,20.16
2022-08-18T03:25:00.473Z,20.08
2022-08-18T03:27:32.738Z,20.13
2022-08-18T03:30:00.923Z,20.12
2022-08-18T03:32:31.996Z,20.11
2022-08-18T03:35:02.898Z,19.83
2022-08-18T03:37:30.878Z,20.02
2022-08-18T03:39:58.788Z,20.02
2022-08-18T03:42:34.503Z,19.92
2022-08-18T03:45:13.160Z,19.90
2022-08-18T03:47:52.463Z,19.88
2022-08-18T03:50:21.773Z,19.82
2022-08-18T03:52:50.293Z,19.77
2022-08-18T03:55:18.289Z,19.73
2022-08-18T03:57:47.708Z,19.71
2022-08-18T04:00:18.980Z,19.68
2022-08-18T04:02:48.968Z,19.70
2022-08-18T04:05:19.399Z,19.71
2022-08-18T04:07:49.605Z,19.72
2022-08-18T04:10:19.412Z,19.71
2022-08-18T04:12:49.167Z,19.70
2022-08-18T04:15:17.317Z,19.69
2022-08-18T04:17:56.179Z,19.68
2022-08-18T04:20:34.456Z,19.66
2022-08-18T04:23:05.459Z,19.62
2022-08-18T04:25:33.758Z,19.69
2022-08-18T04:28:06.112Z,19.52
2022-08-18T04:30:34.083Z,19.65
2022-08-18T04:33:06.462Z,19.63
2022-08-18T04:35:34.533Z,19.63
2022-08-18T04:38:02.520Z,19.69
2022-08-18T04:40:33.896Z,19.78
2022-08-18T04:43:02.874Z,19.85
2022-08-18T04:45:42.355Z,19.88
2022-08-18T04:48:10.616Z,19.88
2022-08-18T04:50:41.641Z,19.86
2022-08-18T04:53:36.241Z,19.88
2022-08-18T04:56:04.594Z,19.89
2022-08-18T04:58:35.739Z,19.95
2022-08-18T05:01:14.283Z,19.96
2022-08-18T05:03:49.918Z,20.02
2022-08-18T05:06:25.440Z,20.12
2022-08-18T05:08:59.979Z,20.20
2022-08-18T05:11:29.944Z,20.26
2022-08-18T05:13:59.081Z,20.28
2022-08-18T05:16:36.494Z,20.33
2022-08-18T05:19:19.874Z,20.39
2022-08-18T05:21:53.530Z,20.41
2022-08-18T05:24:37.337Z,20.48
2022-08-18T05:27:07.547Z,20.68
2022-08-18T05:29:41.466Z,21.04
2022-08-18T05:32:30.550Z,21.55
2022-08-18T05:35:17.785Z,21.69
2022-08-18T05:38:12.092Z,22.19
2022-08-18T05:40:40.179Z,22.63
2022-08-18T05:43:09.760Z,22.88
2022-08-18T05:45:40.790Z,23.02
2022-08-18T05:48:09.979Z,23.12
2022-08-18T05:50:38.866Z,22.95
2022-08-18T05:53:14.618Z,22.87
2022-08-18T05:56:04.988Z,23.10
2022-08-18T05:58:40.111Z,23.34
2022-08-18T06:01:16.809Z,23.65
2022-08-18T06:03:56.791Z,24.06
2022-08-18T06:06:29.627Z,24.09
2022-08-18T06:09:04.377Z,24.20
2022-08-18T06:11:32.702Z,24.33
2022-08-18T06:14:01.440Z,24.28
2022-08-18T06:16:44.483Z,24.00
2022-08-18T06:19:29.774Z,23.80
2022-08-18T06:22:07.571Z,23.68
2022-08-18T06:24:45.251Z,23.58
2022-08-18T06:27:22.891Z,23.26
2022-08-18T06:30:05.259Z,22.93
2022-08-18T06:32:54.795Z,22.62
2022-08-18T06:35:34.174Z,22.53
2022-08-18T06:38:33.912Z,22.49
2022-08-18T06:41:03.983Z,22.49
2022-08-18T06:43:34.249Z,22.29
2022-08-18T06:46:04.410Z,22.16
2022-08-18T06:48:48.115Z,22.06
2022-08-18T06:51:21.880Z,22.06
2022-08-18T06:54:07.320Z,21.90
2022-08-18T06:56:55.338Z,21.91
2022-08-18T06:59:26.553Z,21.95
2022-08-18T07:02:03.751Z,21.85
2022-08-18T07:04:40.464Z,21.89
2022-08-18T07:07:39.706Z,21.86
2022-08-18T07:10:35.485Z,21.73
2022-08-18T07:13:23.406Z,21.65
2022-08-18T07:15:54.613Z,21.58
2022-08-18T07:18:28.566Z,21.54
2022-08-18T07:20:58.304Z,21.52
2022-08-18T07:23:34.316Z,21.47
2022-08-18T07:26:08.795Z,21.42
2022-08-18T07:28:44.255Z,21.43
2022-08-18T07:31:21.339Z,21.49
2022-08-18T07:34:02.125Z,21.50
2022-08-18T07:36:43.773Z,21.54
2022-08-18T07:39:24.047Z,21.57
2022-08-18T07:42:09.702Z,21.67
2022-08-18T07:44:46.161Z,21.65
2022-08-18T07:47:19.487Z,21.67
2022-08-18T07:50:15.542Z,21.62
2022-08-18T07:52:46.840Z,21.65
2022-08-18T07:55:32.646Z,21.54
2022-08-18T07:58:23.011Z,21.45
2022-08-18T08:01:00.164Z,21.55
2022-08-18T08:03:44.740Z,21.78
2022-08-18T08:06:20.409Z,21.98
2022-08-18T08:08:59.046Z,22.34
2022-08-18T08:11:48.992Z,22.40
2022-08-18T08:14:38.268Z,22.49
2022-08-18T08:17:19.098Z,22.32
2022-08-18T08:20:17.906Z,22.47
2022-08-18T08:23:03.382Z,22.79
2022-08-18T08:25:53.119Z,23.14
2022-08-18T08:28:34.990Z,23.18
2022-08-18T08:31:35.483Z,22.97
2022-08-18T08:34:12.182Z,22.74
2022-08-18T08:36:42.354Z,22.56
2022-08-18T08:39:16.129Z,22.59
2022-08-18T08:41:50.073Z,22.79
2022-08-18T08:44:33.703Z,22.97
2022-08-18T08:47:06.400Z,23.13
2022-08-18T08:49:57.486Z,23.08
2022-08-18T08:52:33.206Z,23.10
2022-08-18T08:55:10.583Z,23.09
2022-08-18T08:57:44.113Z,23.07
2022-08-18T09:00:15.264Z,23.23
2022-08-18T09:03:07.912Z,23.62
2022-08-18T09:05:41.429Z,23.85
2022-08-18T09:08:44.932Z,23.77
2022-08-18T09:11:26.706Z,23.97
2022-08-18T09:14:51.202Z,23.98
2022-08-18T09:17:49.940Z,23.92
2022-08-18T09:20:49.209Z,24.06
2022-08-18T09:23:21.528Z,24.11
2022-08-18T09:25:55.285Z,24.30
2022-08-18T09:28:43.419Z,24.33
2022-08-18T09:31:19.979Z,24.30
2022-08-18T09:34:10.654Z,23.91
2022-08-18T09:37:03.155Z,24.12
2022-08-18T09:39:58.437Z,24.21
2022-08-18T09:42:49.865Z,24.39
2022-08-18T09:45:58.080Z,24.19
2022-08-18T09:48:32.972Z,24.50
2022-08-18T09:51:24.641Z,24.71
2022-08-18T09:54:29.472Z,24.81
2022-08-18T09:57:19.598Z,24.42
2022-08-18T09:59:55.240Z,24.30
2022-08-18T10:03:12.713Z,24.42
2022-08-18T10:05:56.377Z,24.26
2022-08-18T10:09:17.919Z,24.07
2022-08-18T10:12:42.074Z,24.25
2022-08-18T10:15:33.651Z,24.45
2022-08-18T10:18:38.023Z,24.54
2022-08-18T10:21:17.369Z,24.62
2022-08-18T10:24:14.672Z,24.59
2022-08-18T10:27:37.455Z,24.99
2022-08-18T10:30:07.639Z,25.06
2022-08-18T10:32:52.274Z,25.18
2022-08-18T10:36:04.383Z,25.24
2022-08-18T10:38:53.562Z,25.18
2022-08-18T10:41:27.275Z,25.04
2022-08-18T10:44:01.224Z,25.02
2022-08-18T10:49:36.769Z,24.77
2022-08-18T10:53:17.085Z,24.66
2022-08-18T10:55:51.865Z,24.84
2022-08-18T10:58:45.874Z,24.95
2022-08-18T11:01:40.358Z,25.22
2022-08-18T11:04:33.539Z,25.66
2022-08-18T11:07:12.851Z,25.89
2022-08-18T11:09:50.629Z,25.92
2022-08-18T11:13:00.525Z,25.99
2022-08-18T11:15:43.799Z,26.04
2022-08-18T11:18:36.268Z,26.25
2022-08-18T11:21:24.661Z,26.38
2022-08-18T11:24:13.583Z,26.44
2022-08-18T11:26:44.983Z,26.57
2022-08-18T11:29:28.825Z,26.64
2022-08-18T11:32:03.759Z,26.54
2022-08-18T11:34:39.359Z,26.38
2022-08-18T11:43:17.353Z,26.39
2022-08-18T11:45:54.780Z,26.47
2022-08-18T11:48:39.073Z,26.56
2022-08-18T11:51:24.081Z,26.50
2022-08-18T11:54:05.062Z,26.60
2022-08-18T11:56:38.104Z,26.53
2022-08-18T11:59:08.458Z,26.46
2022-08-18T12:01:42.281Z,26.63
2022-08-18T12:07:08.481Z,26.80
2022-08-18T12:12:31.530Z,27.14
2022-08-18T12:15:13.737Z,27.20
2022-08-18T12:17:49.921Z,27.35
2022-08-18T12:20:24.144Z,27.46
2022-08-18T12:22:58.313Z,27.45
2022-08-18T12:25:26.390Z,27.65
2022-08-18T12:27:56.751Z,27.41
2022-08-18T12:30:24.677Z,27.23
2022-08-18T12:32:56.171Z,27.13
2022-08-18T12:38:24.572Z,27.37
2022-08-18T12:40:55.923Z,27.37
2022-08-18T12:43:26.553Z,27.67
2022-08-18T12:46:01.033Z,27.77
2022-08-18T12:48:31.629Z,27.65
2022-08-18T12:51:00.990Z,27.46
2022-08-18T12:56:26.330Z,26.71
2022-08-18T12:58:56.609Z,26.59
2022-08-18T13:01:26.786Z,26.62
2022-08-18T13:04:10.933Z,26.73
2022-08-18T13:07:00.646Z,26.93
2022-08-18T13:09:53.105Z,27.09
2022-08-18T13:12:29.411Z,27.27
2022-08-18T13:14:58.438Z,27.17
2022-08-18T13:17:30.044Z,27.28
2022-08-18T13:20:07.883Z,27.34
2022-08-18T13:22:46.534Z,27.42
2022-08-18T13:25:28.809Z,27.39
2022-08-18T13:28:05.585Z,27.47
2022-08-18T13:30:36.765Z,27.42
2022-08-18T13:33:35.391Z,27.15
2022-08-18T13:36:00.746Z,26.98
2022-08-18T13:38:29.894Z,27.29
2022-08-18T13:41:01.811Z,27.56
2022-08-18T13:43:38.004Z,28.14
2022-08-18T13:46:46.450Z,28.53
2022-08-18T13:49:23.773Z,28.63
2022-08-18T13:52:00.796Z,28.66
2022-08-18T13:54:34.084Z,28.61
2022-08-18T13:57:06.593Z,28.70
2022-08-18T13:59:34.789Z,28.82
2022-08-18T14:02:05.940Z,28.65
2022-08-18T14:04:38.561Z,28.23
2022-08-18T14:07:11.056Z,27.76
2022-08-18T14:09:39.708Z,27.78
2022-08-18T14:12:22.723Z,27.82
2022-08-18T14:14:52.904Z,27.73
2022-08-18T14:17:22.229Z,27.62
2022-08-18T14:20:10.520Z,27.57
2022-08-18T14:23:00.094Z,27.50
2022-08-18T14:25:46.476Z,27.44
2022-08-18T14:28:18.698Z,27.43
2022-08-18T14:30:54.395Z,27.37
2022-08-18T14:33:33.957Z,27.40
2022-08-18T14:36:13.212Z,27.42
2022-08-18T14:38:42.304Z,27.44
2022-08-18T14:41:13.972Z,27.48
2022-08-18T14:43:51.713Z,27.41
2022-08-18T14:46:36.204Z,27.49
2022-08-18T14:49:17.955Z,27.41
2022-08-18T14:52:01.969Z,27.47
2022-08-18T14:54:33.821Z,27.28
2022-08-18T14:57:03.162Z,27.22
2022-08-18T14:59:37.769Z,27.29
2022-08-18T15:02:07.650Z,27.24
2022-08-18T15:04:55.876Z,27.09
2022-08-18T15:07:25.991Z,27.10
2022-08-18T15:10:14.962Z,27.01
2022-08-18T15:12:44.129Z,26.81
2022-08-18T15:15:18.022Z,26.65
2022-08-18T15:17:52.528Z,26.43
2022-08-18T15:20:28.606Z,26.26
2022-08-18T15:23:18.206Z,26.28
2022-08-18T15:25:59.894Z,26.24
2022-08-18T15:28:32.060Z,26.23
2022-08-18T15:31:17.805Z,25.96
2022-08-18T15:33:51.082Z,25.92
2022-08-18T15:36:24.067Z,25.86
2022-08-18T15:38:58.354Z,25.86
2022-08-18T15:41:34.119Z,25.79
2022-08-18T15:44:03.681Z,25.90
2022-08-18T15:46:35.974Z,25.96
2022-08-18T15:49:09.570Z,25.98
2022-08-18T15:51:42.630Z,26.04
2022-08-18T15:54:13.467Z,26.06
2022-08-18T15:56:43.444Z,26.00
2022-08-18T15:59:11.519Z,25.95
2022-08-18T16:01:44.062Z,25.83
2022-08-18T16:04:17.381Z,25.87
2022-08-18T16:06:47.849Z,25.95
2022-08-18T16:09:17.011Z,26.00
2022-08-18T16:11:44.990Z,26.02
2022-08-18T16:14:13.211Z,26.09
2022-08-18T16:16:42.647Z,26.01
2022-08-18T16:19:10.668Z,26.01
2022-08-18T16:21:40.249Z,26.10
2022-08-18T16:24:09.949Z,26.14
2022-08-18T16:26:38.215Z,26.11
2022-08-18T16:29:06.263Z,26.16
2022-08-18T16:31:36.986Z,26.13
2022-08-18T16:34:09.337Z,26.13
2022-08-18T16:36:37.428Z,26.09
2022-08-18T16:39:05.447Z,26.06
2022-08-18T16:41:35.218Z,26.03
2022-08-18T16:44:06.394Z,25.98
2022-08-18T16:46:34.576Z,25.96
2022-08-18T16:49:06.660Z,25.93
2022-08-18T16:51:36.503Z,25.91
2022-08-18T16:54:05.438Z,25.84
2022-08-18T16:56:35.659Z,25.79
2022-08-18T16:59:21.358Z,25.75
2022-08-18T17:02:06.948Z,25.73
2022-08-18T17:04:35.188Z,25.77
2022-08-18T17:07:06.402Z,25.78
2022-08-18T17:09:36.087Z,25.71
2022-08-18T17:12:07.504Z,25.64
2022-08-18T17:14:36.801Z,25.58
2022-08-18T17:17:07.779Z,25.56
2022-08-18T17:19:37.580Z,25.46
2022-08-18T17:22:08.119Z,25.44
2022-08-18T17:24:37.610Z,25.40
2022-08-18T17:27:11.940Z,25.37
2022-08-18T17:30:02.423Z,25.31
2022-08-18T17:32:41.742Z,25.20
2022-08-18T17:35:14.691Z,25.16
2022-08-18T17:37:54.815Z,25.15
2022-08-18T17:40:29.032Z,25.16
2022-08-18T17:42:59.853Z,25.07
2022-08-18T17:45:34.780Z,25.02
2022-08-18T17:48:12.555Z,25.06
2022-08-18T17:51:03.062Z,24.85
2022-08-18T17:53:34.355Z,24.62
2022-08-18T17:56:07.610Z,24.46
2022-08-18T17:58:40.330Z,24.38
2022-08-18T18:01:09.242Z,24.39
2022-08-18T18:03:38.022Z,24.33
2022-08-18T18:06:12.168Z,24.38
2022-08-18T18:08:53.344Z,24.41
2022-08-18T18:11:27.683Z,24.40
2022-08-18T18:13:55.959Z,24.38
2022-08-18T18:16:34.975Z,24.33
2022-08-18T18:19:06.373Z,24.26
2022-08-18T18:21:55.395Z,24.14
2022-08-18T18:24:32.669Z,24.14
2022-08-18T18:27:25.870Z,24.07
2022-08-18T18:29:58.008Z,24.00
2022-08-18T18:32:29.562Z,23.93
2022-08-18T18:35:11.136Z,23.91
2022-08-18T18:37:47.376Z,23.86
2022-08-18T18:40:39.478Z,23.77
2022-08-18T18:43:21.468Z,23.65
2022-08-18T18:46:32.044Z,23.70
2022-08-18T18:49:18.945Z,23.66
2022-08-18T18:52:00.899Z,23.59
2022-08-18T18:54:49.948Z,23.55
2022-08-18T18:57:30.073Z,23.48
2022-08-18T19:00:10.031Z,23.45
2022-08-18T19:02:44.060Z,23.41
2022-08-18T19:05:24.198Z,23.39
2022-08-18T19:08:01.078Z,23.34
2022-08-18T19:10:36.118Z,23.29
2022-08-18T19:13:11.633Z,23.30
2022-08-18T19:16:01.186Z,23.27
2022-08-18T19:18:35.254Z,23.19
2022-08-18T19:22:01.822Z,23.23
2022-08-18T19:24:05.983Z,23.17
2022-08-18T19:26:40.389Z,23.14
2022-08-18T19:29:15.162Z,23.05
2022-08-18T19:31:48.652Z,23.06
2022-08-18T19:34:19.701Z,23.01
2022-08-18T19:36:57.585Z,22.92
2022-08-18T19:39:33.560Z,22.83
2022-08-18T19:42:09.321Z,22.81
2022-08-18T19:45:13.073Z,22.72
2022-08-18T19:47:45.918Z,22.63
2022-08-18T19:50:27.727Z,22.64
2022-08-18T19:53:21.331Z,22.59
2022-08-18T19:56:04.685Z,22.51
2022-08-18T19:59:18.310Z,22.54
2022-08-18T20:01:58.710Z,22.52
2022-08-18T20:04:39.964Z,22.47
2022-08-18T20:07:27.528Z,22.42
2022-08-18T20:10:24.223Z,22.33
2022-08-18T20:13:11.806Z,22.28
2022-08-18T20:16:16.293Z,22.24
2022-08-18T20:18:49.002Z,22.19
2022-08-18T20:21:42.677Z,22.12
2022-08-18T20:24:36.319Z,22.15
2022-08-18T20:27:34.136Z,22.11
2022-08-18T20:30:27.241Z,22.07
2022-08-18T20:33:20.612Z,22.10
2022-08-18T20:36:12.919Z,22.07
2022-08-18T20:38:42.805Z,22.02
2022-08-18T20:41:38.972Z,21.99
2022-08-18T20:44:52.233Z,21.98
2022-08-18T20:47:48.335Z,21.95
2022-08-18T20:50:37.967Z,21.93
2022-08-18T20:53:16.277Z,21.96
2022-08-18T20:55:54.684Z,21.92
2022-08-18T20:58:26.974Z,21.94
2022-08-18T21:00:58.223Z,21.99
2022-08-18T21:03:37.885Z,21.98
2022-08-18T21:06:06.720Z,21.93
2022-08-18T21:08:38.764Z,21.92
2022-08-18T21:11:30.898Z,21.91
2022-08-18T21:14:04.031Z,21.88
2022-08-18T21:16:45.027Z,21.81
2022-08-18T21:19:23.498Z,21.81
2022-08-18T21:21:55.099Z,21.78
2022-08-18T21:24:32.049Z,21.73
2022-08-18T21:27:04.411Z,21.67
2022-08-18T21:29:38.263Z,21.67
2022-08-18T21:32:21.185Z,21.70
2022-08-18T21:34:49.853Z,21.73
2022-08-18T21:37:19.688Z,21.75
2022-08-18T21:39:52.659Z,21.65
2022-08-18T21:42:27.512Z,21.57
2022-08-18T21:45:00.833Z,21.60
2022-08-18T21:47:31.871Z,21.53
2022-08-18T21:50:15.290Z,21.56
2022-08-18T21:52:52.901Z,21.51
2022-08-18T21:55:30.198Z,21.45
2022-08-18T21:58:08.603Z,21.42
2022-08-18T22:00:39.490Z,21.42
2022-08-18T22:03:26.513Z,21.43
2022-08-18T22:06:01.690Z,21.37
2022-08-18T22:08:49.735Z,21.26
2022-08-18T22:12:01.800Z,21.34
2022-08-18T22:14:54.003Z,21.24
2022-08-18T22:17:31.951Z,21.08
2022-08-18T22:20:34.607Z,21.18
2022-08-18T22:23:24.658Z,21.13
2022-08-18T22:25:52.713Z,21.04
2022-08-18T22:28:27.240Z,21.12
2022-08-18T22:31:01.993Z,21.06
2022-08-18T22:33:29.939Z,21.10
2022-08-18T22:38:27.684Z,21.08
2022-08-18T22:40:55.632Z,21.04
2022-08-18T22:43:25.860Z,20.99
2022-08-18T22:45:53.822Z,20.90
2022-08-18T22:48:21.808Z,20.80
2022-08-18T22:50:50.113Z,20.76
2022-08-18T22:53:18.856Z,20.75
2022-08-18T22:55:47.174Z,20.71
2022-08-18T22:58:16.928Z,20.64
2022-08-18T23:00:51.548Z,20.61
2022-08-18T23:03:20.087Z,20.61
2022-08-18T23:05:48.316Z,20.48
2022-08-18T23:08:16.393Z,20.58
2022-08-18T23:10:45.548Z,20.57
2022-08-18T23:13:13.476Z,20.61
2022-08-18T23:15:50.792Z,20.61
2022-08-18T23:18:22.189Z,20.58
2022-08-18T23:20:53.146Z,20.58
2022-08-18T23:23:23.630Z,20.56
2022-08-18T23:25:53.978Z,20.49
2022-08-18T23:28:22.238Z,20.39
2022-08-18T23:30:51.431Z,20.28
2022-08-18T23:33:21.702Z,20.27
2022-08-18T23:35:50.425Z,20.26
2022-08-18T23:38:18.309Z,20.25
2022-08-18T23:40:49.212Z,20.20
2022-08-18T23:43:19.374Z,20.21
2022-08-18T23:45:49.915Z,20.23
2022-08-18T23:48:22.284Z,20.15
2022-08-18T23:50:50.497Z,20.16
2022-08-18T23:53:19.150Z,20.13
2022-08-18T23:55:47.271Z,20.06
2022-08-18T23:58:15.265Z,20.06
